createdAt,value
2023-05-06T00:01:24.221Z,10.70
2023-05-06T00:03:51.668Z,10.73
2023-05-06T00:06:18.178Z,10.72
2023-05-06T00:08:45.853Z,10.72
2023-05-06T00:11:13.572Z,10.63
2023-05-06T00:13:39.974Z,10.60
2023-05-06T00:16:06.544Z,10.57
2023-05-06T00:18:33.026Z,10.49
2023-05-06T00:20:59.514Z,10.47
2023-05-06T00:23:25.899Z,10.44
2023-05-06T00:25:54.040Z,10.38
2023-05-06T00:28:20.408Z,10.34
2023-05-06T00:30:46.800Z,10.30
2023-05-06T00:33:13.184Z,10.29
2023-05-06T00:35:39.608Z,10.27
2023-05-06T00:38:09.247Z,10.25
2023-05-06T00:40:36.446Z,10.24
2023-05-06T00:43:03.463Z,10.22
2023-05-06T00:45:30.575Z,10.17
2023-05-06T00:47:57.952Z,10.13
2023-05-06T00:50:24.763Z,10.07
2023-05-06T00:52:51.704Z,10.06
2023-05-06T00:55:18.215Z,10.00
2023-05-06T00:57:44.720Z,9.92
2023-05-06T01:00:11.659Z,9.89
2023-05-06T01:02:46.528Z,9.84
2023-05-06T01:05:16.305Z,9.79
2023-05-06T01:08:09.978Z,9.67
2023-05-06T01:10:49.925Z,9.63
2023-05-06T01:13:42.836Z,9.57
2023-05-06T01:16:12.616Z,9.53
2023-05-06T01:18:39.885Z,9.46
2023-05-06T01:21:07.737Z,9.43
2023-05-06T01:24:06.595Z,9.37
2023-05-06T01:26:33.040Z,9.38
2023-05-06T01:29:01.857Z,9.38
2023-05-06T01:31:45.476Z,9.37
2023-05-06T01:34:20.927Z,9.36
2023-05-06T01:37:05.561Z,9.36
2023-05-06T01:39:33.080Z,9.38
2023-05-06T01:42:01.971Z,9.30
2023-05-06T01:44:33.757Z,9.29
2023-05-06T01:47:01.105Z,9.24
2023-05-06T01:52:18.612Z,9.16
2023-05-06T01:54:45.398Z,9.13
2023-05-06T01:57:18.980Z,8.95
2023-05-06T01:59:45.537Z,8.87
2023-05-06T02:02:12.114Z,8.81
2023-05-06T02:04:38.963Z,8.77
2023-05-06T02:07:05.728Z,8.69
2023-05-06T02:09:32.161Z,8.69
2023-05-06T02:11:58.610Z,8.68
2023-05-06T02:14:25.029Z,8.72
2023-05-06T02:16:51.588Z,8.67
2023-05-06T02:19:17.971Z,8.68
2023-05-06T02:21:44.588Z,8.63
2023-05-06T02:24:11.047Z,8.58
2023-05-06T02:26:37.539Z,8.49
2023-05-06T02:29:04.024Z,8.47
2023-05-06T02:31:31.942Z,8.45
2023-05-06T02:33:58.369Z,8.47
2023-05-06T02:36:24.879Z,8.47
2023-05-06T02:38:51.292Z,8.45
2023-05-06T02:41:17.739Z,8.40
2023-05-06T02:43:44.188Z,8.37
2023-05-06T02:46:11.746Z,8.25
2023-05-06T02:48:38.141Z,8.20
2023-05-06T02:51:05.598Z,8.18
2023-05-06T02:53:32.314Z,8.21
2023-05-06T02:55:58.971Z,8.23
2023-05-06T02:58:26.144Z,8.25
2023-05-06T03:00:52.702Z,8.24
2023-05-06T03:03:19.104Z,8.25
2023-05-06T03:05:45.717Z,8.27
2023-05-06T03:08:12.113Z,8.30
2023-05-06T03:10:38.786Z,8.42
2023-05-06T03:13:05.612Z,8.42
2023-05-06T03:15:32.176Z,8.40
2023-05-06T03:17:59.222Z,8.36
2023-05-06T03:20:25.710Z,8.34
2023-05-06T03:22:52.641Z,8.24
2023-05-06T03:25:19.020Z,8.21
2023-05-06T03:27:45.586Z,8.19
2023-05-06T03:30:12.456Z,8.17
2023-05-06T03:32:39.098Z,8.18
2023-05-06T03:35:07.361Z,8.17
2023-05-06T03:37:34.501Z,8.24
2023-05-06T03:40:03.580Z,8.26
2023-05-06T03:42:31.121Z,8.22
2023-05-06T03:44:57.504Z,8.23
2023-05-06T03:47:24.272Z,8.23
2023-05-06T03:49:51.130Z,8.19
2023-05-06T03:52:18.080Z,8.14
2023-05-06T03:54:44.684Z,8.14
2023-05-06T03:57:11.067Z,8.15
2023-05-06T03:59:37.950Z,8.16
2023-05-06T04:02:05.572Z,8.19
2023-05-06T04:04:31.975Z,8.15
2023-05-06T04:06:58.590Z,8.18
2023-05-06T04:09:25.641Z,8.22
2023-05-06T04:11:52.152Z,8.24
2023-05-06T04:14:19.125Z,8.21
2023-05-06T04:16:45.644Z,8.20
2023-05-06T04:19:12.707Z,8.22
2023-05-06T04:21:39.523Z,8.19
2023-05-06T04:24:06.400Z,8.14
2023-05-06T04:26:33.343Z,8.16
2023-05-06T04:28:59.931Z,8.15
2023-05-06T04:31:29.605Z,8.16
2023-05-06T04:33:56.069Z,8.13
2023-05-06T04:36:23.033Z,8.14
2023-05-06T04:38:49.424Z,8.15
2023-05-06T04:41:15.913Z,8.21
2023-05-06T04:43:42.384Z,8.27
2023-05-06T04:46:08.896Z,8.33
2023-05-06T04:48:35.524Z,8.67
2023-05-06T04:51:04.217Z,8.87
2023-05-06T04:53:31.741Z,9.00
2023-05-06T04:55:58.152Z,9.24
2023-05-06T04:58:24.639Z,9.97
2023-05-06T05:00:51.661Z,11.11
2023-05-06T05:03:18.201Z,11.95
2023-05-06T05:05:45.061Z,13.92
2023-05-06T05:08:13.256Z,16.10
2023-05-06T05:10:45.831Z,18.30
2023-05-06T05:13:12.930Z,19.76
2023-05-06T05:15:40.065Z,20.86
2023-05-06T05:18:06.732Z,21.39
2023-05-06T05:20:33.617Z,21.81
2023-05-06T05:23:00.491Z,21.69
2023-05-06T05:25:27.330Z,21.45
2023-05-06T05:27:53.705Z,22.06
2023-05-06T05:30:20.660Z,22.05
2023-05-06T05:32:47.337Z,21.08
2023-05-06T05:35:13.769Z,20.95
2023-05-06T05:37:40.345Z,19.92
2023-05-06T05:40:07.212Z,20.38
2023-05-06T05:42:34.097Z,20.56
2023-05-06T05:45:00.615Z,20.69
2023-05-06T05:47:27.245Z,20.22
2023-05-06T05:49:54.250Z,18.70
2023-05-06T05:52:20.889Z,16.81
2023-05-06T05:54:47.697Z,15.19
2023-05-06T05:57:14.263Z,14.55
2023-05-06T05:59:41.149Z,13.84
2023-05-06T06:02:07.547Z,13.58
2023-05-06T06:04:35.160Z,13.30
2023-05-06T06:07:02.156Z,13.07
2023-05-06T06:09:28.770Z,12.96
2023-05-06T06:11:55.438Z,12.91
2023-05-06T06:14:21.902Z,12.87
2023-05-06T06:16:48.635Z,12.88
2023-05-06T06:19:15.794Z,12.75
2023-05-06T06:21:42.418Z,12.73
2023-05-06T06:24:09.069Z,12.46
2023-05-06T06:26:35.877Z,12.43
2023-05-06T06:29:02.304Z,12.43
2023-05-06T06:31:29.418Z,12.39
2023-05-06T06:33:56.035Z,12.40
2023-05-06T06:36:22.435Z,12.45
2023-05-06T06:38:49.028Z,12.58
2023-05-06T06:41:15.420Z,12.64
2023-05-06T06:43:42.188Z,12.84
2023-05-06T06:46:08.801Z,13.07
2023-05-06T06:48:35.839Z,13.24
2023-05-06T06:51:02.694Z,13.46
2023-05-06T06:53:29.113Z,13.44
2023-05-06T06:55:55.707Z,13.58
2023-05-06T06:58:22.182Z,13.66
2023-05-06T07:00:48.608Z,13.79
2023-05-06T07:03:19.445Z,13.83
2023-05-06T07:05:46.576Z,13.97
2023-05-06T07:08:12.971Z,14.14
2023-05-06T07:10:39.514Z,14.27
2023-05-06T07:13:05.912Z,14.40
2023-05-06T07:15:32.333Z,14.50
2023-05-06T07:17:58.933Z,14.54
2023-05-06T07:20:25.645Z,14.56
2023-05-06T07:22:52.777Z,14.55
2023-05-06T07:25:19.347Z,14.63
2023-05-06T07:27:45.875Z,14.66
2023-05-06T07:30:12.614Z,14.80
2023-05-06T07:32:40.955Z,14.97
2023-05-06T07:35:08.710Z,14.91
2023-05-06T07:37:35.583Z,15.07
2023-05-06T07:40:03.253Z,15.22
2023-05-06T07:42:29.684Z,15.00
2023-05-06T07:44:57.205Z,15.08
2023-05-06T07:47:31.747Z,15.06
2023-05-06T07:50:00.364Z,15.30
2023-05-06T07:52:27.561Z,15.42
2023-05-06T07:54:54.203Z,15.43
2023-05-06T07:57:20.899Z,15.60
2023-05-06T07:59:48.609Z,15.59
2023-05-06T08:02:15.392Z,15.60
2023-05-06T08:04:42.790Z,15.53
2023-05-06T08:07:10.744Z,15.56
2023-05-06T08:09:37.740Z,15.63
2023-05-06T08:12:04.426Z,15.73
2023-05-06T08:14:31.268Z,15.86
2023-05-06T08:16:57.675Z,15.98
2023-05-06T08:19:24.459Z,16.15
2023-05-06T08:21:51.432Z,16.28
2023-05-06T08:24:17.963Z,16.57
2023-05-06T08:26:44.361Z,16.76
2023-05-06T08:29:10.841Z,17.05
2023-05-06T08:31:37.268Z,17.10
2023-05-06T08:34:03.893Z,17.22
2023-05-06T08:36:30.934Z,17.53
2023-05-06T08:38:57.413Z,17.67
2023-05-06T08:41:26.251Z,17.78
2023-05-06T08:43:55.356Z,17.82
2023-05-06T08:46:22.804Z,17.76
2023-05-06T08:48:49.657Z,17.63
2023-05-06T08:51:16.774Z,17.79
2023-05-06T08:53:48.424Z,17.82
2023-05-06T08:56:16.985Z,17.99
2023-05-06T08:58:46.488Z,18.20
2023-05-06T09:01:14.720Z,18.44
2023-05-06T09:03:41.397Z,18.68
2023-05-06T09:06:08.035Z,18.87
2023-05-06T09:08:34.677Z,18.77
2023-05-06T09:11:01.114Z,18.96
2023-05-06T09:13:27.728Z,19.05
2023-05-06T09:15:55.226Z,19.02
2023-05-06T09:18:22.402Z,18.64
2023-05-06T09:20:50.494Z,18.67
2023-05-06T09:23:18.002Z,18.80
2023-05-06T09:25:46.518Z,18.66
2023-05-06T09:28:13.989Z,18.83
2023-05-06T09:30:41.750Z,19.03
2023-05-06T09:33:09.561Z,19.01
2023-05-06T09:35:41.267Z,19.03
2023-05-06T09:38:08.328Z,19.07
2023-05-06T09:40:39.140Z,19.24
2023-05-06T09:43:06.239Z,19.54
2023-05-06T09:45:33.396Z,19.69
2023-05-06T09:48:01.066Z,19.59
2023-05-06T09:50:28.069Z,19.27
2023-05-06T09:52:56.071Z,19.71
2023-05-06T09:55:26.457Z,19.91
2023-05-06T09:57:53.321Z,19.96
2023-05-06T10:00:26.889Z,20.08
2023-05-06T10:02:54.991Z,20.16
2023-05-06T10:05:22.805Z,20.34
2023-05-06T10:07:52.492Z,20.28
2023-05-06T10:10:19.000Z,20.15
2023-05-06T10:12:46.344Z,20.39
2023-05-06T10:15:13.033Z,20.49
2023-05-06T10:17:41.598Z,20.76
2023-05-06T10:20:09.538Z,20.69
2023-05-06T10:23:03.828Z,21.00
2023-05-06T10:25:36.385Z,21.19
2023-05-06T10:28:17.689Z,21.06
2023-05-06T10:30:58.028Z,21.01
2023-05-06T10:33:26.464Z,20.97
2023-05-06T10:36:03.228Z,21.08
2023-05-06T10:38:49.263Z,21.22
2023-05-06T10:41:16.820Z,21.48
2023-05-06T10:43:44.060Z,21.50
2023-05-06T10:46:15.629Z,21.35
2023-05-06T10:49:08.378Z,21.47
2023-05-06T10:51:36.283Z,21.40
2023-05-06T10:54:23.441Z,21.26
2023-05-06T10:56:49.806Z,21.04
2023-05-06T10:59:22.348Z,20.81
2023-05-06T11:02:08.181Z,20.77
2023-05-06T11:04:34.760Z,20.82
2023-05-06T11:07:15.526Z,21.25
2023-05-06T11:10:02.222Z,21.67
2023-05-06T11:12:47.481Z,22.00
2023-05-06T11:15:26.870Z,22.21
2023-05-06T11:17:57.417Z,22.25
2023-05-06T11:20:26.572Z,22.17
2023-05-06T11:22:54.213Z,22.26
2023-05-06T11:28:25.377Z,22.92
2023-05-06T11:30:55.376Z,22.98
2023-05-06T11:33:23.999Z,22.78
2023-05-06T11:35:50.716Z,22.01
2023-05-06T11:38:17.142Z,22.01
2023-05-06T11:40:44.218Z,22.19
2023-05-06T11:43:15.098Z,21.90
2023-05-06T11:45:47.080Z,22.17
2023-05-06T11:48:14.874Z,22.54
2023-05-06T11:50:48.942Z,22.96
2023-05-06T11:53:21.047Z,22.81
2023-05-06T11:55:49.564Z,22.21
2023-05-06T11:58:18.901Z,21.85
2023-05-06T12:00:58.744Z,21.66
2023-05-06T12:03:27.411Z,21.60
2023-05-06T12:05:55.643Z,21.63
2023-05-06T12:08:33.106Z,21.95
2023-05-06T12:11:04.637Z,21.96
2023-05-06T12:13:31.317Z,21.89
2023-05-06T12:15:59.599Z,21.75
2023-05-06T12:18:26.588Z,21.81
2023-05-06T12:20:54.644Z,21.75
2023-05-06T12:23:24.789Z,21.64
2023-05-06T12:26:06.627Z,21.73
2023-05-06T12:28:36.644Z,21.60
2023-05-06T12:31:20.154Z,21.63
2023-05-06T12:33:49.668Z,21.75
2023-05-06T12:36:18.033Z,21.71
2023-05-06T12:38:56.174Z,21.78
2023-05-06T12:41:42.989Z,21.72
2023-05-06T12:44:34.909Z,21.59
2023-05-06T12:47:04.775Z,21.67
2023-05-06T12:50:04.272Z,21.96
2023-05-06T12:52:30.857Z,22.07
2023-05-06T12:54:57.683Z,22.15
2023-05-06T12:57:24.215Z,22.05
2023-05-06T12:59:50.666Z,22.05
2023-05-06T13:02:18.897Z,21.95
2023-05-06T13:04:46.694Z,21.72
2023-05-06T13:07:13.307Z,21.54
2023-05-06T13:09:39.728Z,21.53
2023-05-06T13:12:07.540Z,21.52
2023-05-06T13:14:34.082Z,21.72
2023-05-06T13:17:01.480Z,22.09
2023-05-06T13:19:32.977Z,22.34
2023-05-06T13:22:00.402Z,22.59
2023-05-06T13:24:27.409Z,22.82
2023-05-06T13:26:53.897Z,22.76
2023-05-06T13:29:20.631Z,22.82
2023-05-06T13:31:47.536Z,22.91
2023-05-06T13:34:13.956Z,22.79
2023-05-06T13:36:40.373Z,22.76
2023-05-06T13:39:06.831Z,22.65
2023-05-06T13:41:33.201Z,22.48
2023-05-06T13:44:00.020Z,22.48
2023-05-06T13:46:29.454Z,22.38
2023-05-06T13:48:55.953Z,22.31
2023-05-06T13:51:22.522Z,22.26
2023-05-06T13:53:49.149Z,22.26
2023-05-06T13:56:15.872Z,22.16
2023-05-06T13:58:42.260Z,22.25
2023-05-06T14:01:08.935Z,22.22
2023-05-06T14:03:35.340Z,22.22
2023-05-06T14:06:02.046Z,22.10
2023-05-06T14:08:28.537Z,22.06
2023-05-06T14:10:55.378Z,22.15
2023-05-06T14:13:22.117Z,22.16
2023-05-06T14:15:48.601Z,21.84
2023-05-06T14:18:16.024Z,21.71
2023-05-06T14:20:42.479Z,21.64
2023-05-06T14:23:09.421Z,21.63
2023-05-06T14:25:35.933Z,21.61
2023-05-06T14:28:02.809Z,21.48
2023-05-06T14:30:29.902Z,21.36
2023-05-06T14:32:57.650Z,21.43
2023-05-06T14:35:24.360Z,21.27
2023-05-06T14:37:51.072Z,21.28
2023-05-06T14:40:17.873Z,21.12
2023-05-06T14:42:45.809Z,20.98
2023-05-06T14:45:13.871Z,20.81
2023-05-06T14:47:40.633Z,20.79
2023-05-06T14:50:09.310Z,20.38
2023-05-06T14:52:36.643Z,19.81
2023-05-06T14:55:04.316Z,19.51
2023-05-06T14:57:30.714Z,19.03
2023-05-06T14:59:59.009Z,18.59
2023-05-06T15:02:25.914Z,18.10
2023-05-06T15:04:52.334Z,18.03
2023-05-06T15:07:18.920Z,17.82
2023-05-06T15:09:45.477Z,17.63
2023-05-06T15:12:12.319Z,17.54
2023-05-06T15:14:39.849Z,17.56
2023-05-06T15:17:06.571Z,17.55
2023-05-06T15:19:33.790Z,17.57
2023-05-06T15:22:00.748Z,17.72
2023-05-06T15:24:27.180Z,17.79
2023-05-06T15:26:54.432Z,17.91
2023-05-06T15:29:21.200Z,17.73
2023-05-06T15:31:47.901Z,17.87
2023-05-06T15:34:14.448Z,17.87
2023-05-06T15:36:42.026Z,17.93
2023-05-06T15:39:08.658Z,17.93
2023-05-06T15:41:39.011Z,17.68
2023-05-06T15:44:06.121Z,17.60
2023-05-06T15:46:33.070Z,17.45
2023-05-06T15:49:20.936Z,17.35
2023-05-06T15:51:46.389Z,17.15
2023-05-06T15:54:13.375Z,17.01
2023-05-06T15:56:41.547Z,17.11
2023-05-06T15:59:08.800Z,16.97
2023-05-06T16:01:54.036Z,16.85
2023-05-06T16:04:22.413Z,16.45
2023-05-06T16:06:49.649Z,16.33
2023-05-06T16:09:17.181Z,16.15
2023-05-06T16:11:43.620Z,15.99
2023-05-06T16:14:10.269Z,15.90
2023-05-06T16:16:36.774Z,15.84
2023-05-06T16:19:03.843Z,15.70
2023-05-06T16:21:30.210Z,15.75
2023-05-06T16:23:56.680Z,15.79
2023-05-06T16:26:23.545Z,15.86
2023-05-06T16:28:49.972Z,15.98
2023-05-06T16:31:17.054Z,16.04
2023-05-06T16:33:43.570Z,15.75
2023-05-06T16:36:10.339Z,15.75
2023-05-06T16:38:36.941Z,15.63
2023-05-06T16:41:03.418Z,15.71
2023-05-06T16:43:30.217Z,15.71
2023-05-06T16:45:56.620Z,15.81
2023-05-06T16:48:23.231Z,15.90
2023-05-06T16:50:49.872Z,15.85
2023-05-06T16:53:17.268Z,15.78
2023-05-06T16:55:49.109Z,15.69
2023-05-06T16:58:15.961Z,15.74
2023-05-06T17:00:42.799Z,15.70
2023-05-06T17:03:09.509Z,15.66
2023-05-06T17:05:36.951Z,15.79
2023-05-06T17:08:03.951Z,15.59
2023-05-06T17:10:30.390Z,15.55
2023-05-06T17:12:57.192Z,15.50
2023-05-06T17:15:24.776Z,15.57
2023-05-06T17:17:51.738Z,15.69
2023-05-06T17:20:19.869Z,15.72
2023-05-06T17:22:47.169Z,15.80
2023-05-06T17:25:13.898Z,15.75
2023-05-06T17:27:41.312Z,15.77
2023-05-06T17:30:11.865Z,15.71
2023-05-06T17:32:39.027Z,15.64
2023-05-06T17:35:06.302Z,15.63
2023-05-06T17:37:33.870Z,15.62
2023-05-06T17:40:00.585Z,15.72
2023-05-06T17:42:29.776Z,15.71
2023-05-06T17:44:56.877Z,15.67
2023-05-06T17:47:23.385Z,15.62
2023-05-06T17:49:53.673Z,15.51
2023-05-06T17:52:20.688Z,15.47
2023-05-06T17:55:01.455Z,15.49
2023-05-06T17:57:37.076Z,15.52
2023-05-06T18:00:04.096Z,15.53
2023-05-06T18:02:30.664Z,15.48
2023-05-06T18:04:57.667Z,15.48
2023-05-06T18:07:24.078Z,15.46
2023-05-06T18:09:52.040Z,15.48
2023-05-06T18:12:19.482Z,15.48
2023-05-06T18:14:46.080Z,15.49
2023-05-06T18:17:12.471Z,15.53
2023-05-06T18:19:39.510Z,15.49
2023-05-06T18:22:05.901Z,15.44
2023-05-06T18:24:32.564Z,15.40
2023-05-06T18:26:58.964Z,15.34
2023-05-06T18:29:27.936Z,15.26
2023-05-06T18:31:54.337Z,15.28
2023-05-06T18:34:20.941Z,15.24
2023-05-06T18:36:47.369Z,15.21
2023-05-06T18:39:14.127Z,15.13
2023-05-06T18:41:41.271Z,15.13
2023-05-06T18:44:07.683Z,15.18
2023-05-06T18:46:34.438Z,15.19
2023-05-06T18:49:00.964Z,15.18
2023-05-06T18:51:28.056Z,15.15
2023-05-06T18:53:54.497Z,15.08
2023-05-06T18:56:23.355Z,15.08
2023-05-06T18:58:49.862Z,15.04
2023-05-06T19:01:17.016Z,15.01
2023-05-06T19:03:43.604Z,14.97
2023-05-06T19:06:11.935Z,14.94
2023-05-06T19:08:38.763Z,14.81
2023-05-06T19:11:05.880Z,14.76
2023-05-06T19:13:32.370Z,14.78
2023-05-06T19:16:00.326Z,14.78
2023-05-06T19:18:26.886Z,14.77
2023-05-06T19:20:55.251Z,14.69
2023-05-06T19:23:21.794Z,14.58
2023-05-06T19:25:48.256Z,14.56
2023-05-06T19:28:14.766Z,14.59
2023-05-06T19:30:41.594Z,14.59
2023-05-06T19:33:08.205Z,14.59
2023-05-06T19:35:38.032Z,14.60
2023-05-06T19:38:06.063Z,14.53
2023-05-06T19:40:34.506Z,14.47
2023-05-06T19:43:04.196Z,14.49
2023-05-06T19:45:31.418Z,14.44
2023-05-06T19:47:58.768Z,14.42
2023-05-06T19:50:27.410Z,14.44
2023-05-06T19:52:53.988Z,14.49
2023-05-06T19:55:20.674Z,14.43
2023-05-06T19:57:47.535Z,14.41
2023-05-06T20:00:18.028Z,14.42
2023-05-06T20:02:44.938Z,14.40
2023-05-06T20:05:11.977Z,14.43
2023-05-06T20:07:39.066Z,14.41
2023-05-06T20:10:06.201Z,14.41
2023-05-06T20:12:33.382Z,14.32
2023-05-06T20:14:59.817Z,14.23
2023-05-06T20:17:26.749Z,14.22
2023-05-06T20:19:58.250Z,14.17
2023-05-06T20:22:25.218Z,14.16
2023-05-06T20:24:52.992Z,14.15
2023-05-06T20:27:22.814Z,14.10
2023-05-06T20:29:51.523Z,14.02
2023-05-06T20:32:18.013Z,14.00
2023-05-06T20:34:45.662Z,14.04
2023-05-06T20:37:12.054Z,13.97
2023-05-06T20:39:38.453Z,13.97
2023-05-06T20:42:05.162Z,13.93
2023-05-06T20:44:31.720Z,13.86
2023-05-06T20:46:58.110Z,13.87
2023-05-06T20:49:24.544Z,13.88
2023-05-06T20:51:52.131Z,13.87
2023-05-06T20:54:18.548Z,13.78
2023-05-06T20:56:45.298Z,13.70
2023-05-06T20:59:11.766Z,13.66
2023-05-06T21:01:38.430Z,13.64
2023-05-06T21:04:06.197Z,13.61
2023-05-06T21:06:32.673Z,13.61
2023-05-06T21:08:59.606Z,13.61
2023-05-06T21:11:28.658Z,13.64
2023-05-06T21:13:55.534Z,13.60
2023-05-06T21:16:22.240Z,13.57
2023-05-06T21:18:48.851Z,13.57
2023-05-06T21:21:15.753Z,13.60
2023-05-06T21:23:42.157Z,13.59
2023-05-06T21:26:08.833Z,13.54
2023-05-06T21:28:35.201Z,13.54
2023-05-06T21:31:03.465Z,13.54
2023-05-06T21:33:30.572Z,13.53
2023-05-06T21:35:57.192Z,13.50
2023-05-06T21:38:24.577Z,13.48
2023-05-06T21:40:51.033Z,13.48
2023-05-06T21:43:17.989Z,13.48
2023-05-06T21:45:44.663Z,13.50
2023-05-06T21:48:11.627Z,13.47
2023-05-06T21:50:38.581Z,13.46
2023-05-06T21:53:05.320Z,13.49
2023-05-06T21:55:32.442Z,13.50
2023-05-06T21:57:58.860Z,13.43
2023-05-06T22:00:25.762Z,13.40
2023-05-06T22:02:53.132Z,13.42
2023-05-06T22:05:20.259Z,13.36
2023-05-06T22:07:46.710Z,13.29
2023-05-06T22:10:13.651Z,13.29
2023-05-06T22:12:40.191Z,13.27
2023-05-06T22:15:09.182Z,13.21
2023-05-06T22:17:36.537Z,13.24
2023-05-06T22:20:04.312Z,13.19
2023-05-06T22:22:31.258Z,13.12
2023-05-06T22:24:57.672Z,13.04
2023-05-06T22:27:24.550Z,13.06
2023-05-06T22:29:50.933Z,13.01
2023-05-06T22:32:17.940Z,12.93
2023-05-06T22:34:44.728Z,12.88
2023-05-06T22:37:11.271Z,12.85
2023-05-06T22:39:38.017Z,12.76
2023-05-06T22:42:04.863Z,12.68
2023-05-06T22:44:31.672Z,12.65
2023-05-06T22:46:58.060Z,12.60
2023-05-06T22:49:28.783Z,12.60
2023-05-06T22:51:56.238Z,12.56
2023-05-06T22:54:24.358Z,12.48
2023-05-06T22:56:51.149Z,12.41
2023-05-06T22:59:17.709Z,12.36
2023-05-06T23:01:44.173Z,12.31
2023-05-06T23:04:11.101Z,12.31
2023-05-06T23:06:40.151Z,12.33
2023-05-06T23:09:07.686Z,12.31
2023-05-06T23:11:34.816Z,12.36
2023-05-06T23:14:01.853Z,12.41
2023-05-06T23:16:29.457Z,12.52
2023-05-06T23:18:59.028Z,12.64
2023-05-06T23:21:26.831Z,12.75
2023-05-06T23:23:53.627Z,12.88
2023-05-06T23:26:20.673Z,12.97
2023-05-06T23:28:47.447Z,12.92
2023-05-06T23:31:15.170Z,12.92
2023-05-06T23:33:41.843Z,12.98
2023-05-06T23:36:08.586Z,13.02
2023-05-06T23:38:35.629Z,13.09
2023-05-06T23:41:02.178Z,13.21
2023-05-06T23:43:28.660Z,13.17
2023-05-06T23:45:55.747Z,13.18
2023-05-06T23:48:22.144Z,13.22
2023-05-06T23:50:48.987Z,13.27
2023-05-06T23:53:15.562Z,13.22
2023-05-06T23:55:42.813Z,13.25
2023-05-06T23:58:09.836Z,13.17
